createdAt,value
2023-05-20T00:00:53.890Z,85.19
2023-05-20T00:03:21.871Z,83.15
2023-05-20T00:05:49.447Z,83.40
2023-05-20T00:08:19.368Z,82.87
2023-05-20T00:10:46.990Z,83.28
2023-05-20T00:13:14.421Z,82.90
2023-05-20T00:15:41.950Z,82.10
2023-05-20T00:18:09.315Z,81.49
2023-05-20T00:20:36.683Z,82.25
2023-05-20T00:23:05.485Z,82.63
2023-05-20T00:25:33.141Z,82.06
2023-05-20T00:28:00.745Z,83.41
2023-05-20T00:30:28.361Z,80.98
2023-05-20T00:32:56.835Z,81.27
2023-05-20T00:35:24.250Z,81.66
2023-05-20T00:37:51.610Z,81.10
2023-05-20T00:40:19.191Z,81.00
2023-05-20T00:42:46.585Z,81.52
2023-05-20T00:45:14.005Z,83.04
2023-05-20T00:47:42.705Z,81.35
2023-05-20T00:50:11.416Z,81.41
2023-05-20T00:52:41.667Z,80.83
2023-05-20T00:55:09.311Z,80.98
2023-05-20T00:57:36.918Z,82.61
2023-05-20T01:00:05.913Z,80.34
2023-05-20T01:02:33.401Z,80.68
2023-05-20T01:05:01.465Z,80.84
2023-05-20T01:07:29.150Z,81.63
2023-05-20T01:09:56.858Z,82.41
2023-05-20T01:12:31.734Z,82.07
2023-05-20T01:15:05.765Z,79.65
2023-05-20T01:17:38.056Z,80.21
2023-05-20T01:20:10.359Z,80.71
2023-05-20T01:22:41.874Z,79.75
2023-05-20T01:25:10.088Z,79.63
2023-05-20T01:27:37.945Z,80.33
2023-05-20T01:30:08.925Z,81.43
2023-05-20T01:32:40.605Z,81.73
2023-05-20T01:35:10.094Z,83.60
2023-05-20T01:37:40.482Z,86.85
2023-05-20T01:40:09.673Z,86.34
2023-05-20T01:42:38.821Z,84.61
2023-05-20T01:45:07.094Z,86.35
2023-05-20T01:47:34.562Z,87.49
2023-05-20T01:50:03.170Z,85.73
2023-05-20T01:52:31.807Z,86.89
2023-05-20T01:54:59.377Z,87.33
2023-05-20T01:57:26.720Z,86.92
2023-05-20T01:59:54.163Z,87.73
2023-05-20T02:02:22.742Z,87.97
2023-05-20T02:04:53.685Z,86.09
2023-05-20T02:07:24.012Z,87.53
2023-05-20T02:09:52.857Z,87.84
2023-05-20T02:12:20.345Z,84.54
2023-05-20T02:14:48.390Z,83.53
2023-05-20T02:17:17.901Z,88.19
2023-05-20T02:19:46.136Z,91.53
2023-05-20T02:22:15.537Z,92.40
2023-05-20T02:24:44.844Z,92.98
2023-05-20T02:27:12.982Z,92.74
2023-05-20T02:29:40.523Z,85.66
2023-05-20T02:32:08.950Z,83.67
2023-05-20T02:34:36.454Z,81.75
2023-05-20T02:37:04.020Z,80.94
2023-05-20T02:39:31.462Z,80.27
2023-05-20T02:41:58.840Z,79.31
2023-05-20T02:44:26.545Z,78.74
2023-05-20T02:46:55.480Z,79.31
2023-05-20T02:49:24.337Z,80.48
2023-05-20T02:51:52.624Z,78.71
2023-05-20T02:54:20.050Z,78.20
2023-05-20T02:56:47.447Z,78.99
2023-05-20T02:59:15.494Z,78.76
2023-05-20T03:01:43.071Z,78.21
2023-05-20T03:04:10.561Z,79.22
2023-05-20T03:06:38.469Z,79.07
2023-05-20T03:09:05.998Z,79.25
2023-05-20T03:11:33.512Z,80.33
2023-05-20T03:14:00.943Z,79.56
2023-05-20T03:16:28.947Z,79.30
2023-05-20T03:18:56.418Z,83.37
2023-05-20T03:21:24.266Z,87.30
2023-05-20T03:23:51.986Z,87.74
2023-05-20T03:26:19.822Z,87.55
2023-05-20T03:28:47.267Z,88.87
2023-05-20T03:31:15.059Z,89.81
2023-05-20T03:33:42.526Z,88.98
2023-05-20T03:36:09.949Z,88.56
2023-05-20T03:38:37.805Z,89.04
2023-05-20T03:41:05.300Z,88.92
2023-05-20T03:43:34.149Z,89.01
2023-05-20T03:46:01.960Z,90.06
2023-05-20T03:48:29.820Z,90.31
2023-05-20T03:50:57.282Z,91.31
2023-05-20T03:53:24.852Z,92.84
2023-05-20T03:55:52.212Z,98.32
2023-05-20T03:58:23.520Z,95.49
2023-05-20T04:00:50.917Z,93.81
2023-05-20T04:03:18.977Z,91.61
2023-05-20T04:05:48.351Z,92.11
2023-05-20T04:08:22.087Z,91.90
2023-05-20T04:10:49.756Z,91.27
2023-05-20T04:13:17.369Z,91.51
2023-05-20T04:15:44.766Z,91.90
2023-05-20T04:18:13.840Z,92.18
2023-05-20T04:20:41.852Z,92.56
2023-05-20T04:23:10.799Z,94.34
2023-05-20T04:25:39.004Z,95.69
2023-05-20T04:28:06.640Z,95.62
2023-05-20T04:30:34.069Z,95.10
2023-05-20T04:33:04.459Z,95.40
2023-05-20T04:35:35.121Z,96.26
2023-05-20T04:38:05.244Z,96.56
2023-05-20T04:40:32.716Z,95.79
2023-05-20T04:43:00.864Z,95.83
2023-05-20T04:45:28.507Z,95.84
2023-05-20T04:47:56.059Z,95.85
2023-05-20T04:50:23.678Z,96.70
2023-05-20T04:52:51.693Z,94.35
2023-05-20T04:55:19.828Z,95.10
2023-05-20T04:57:47.331Z,99.16
2023-05-20T05:00:14.966Z,98.47
2023-05-20T05:02:42.550Z,100.00
2023-05-20T05:05:10.272Z,100.00
2023-05-20T05:07:38.732Z,99.73
2023-05-20T05:10:06.737Z,100.00
2023-05-20T05:12:35.709Z,100.00
2023-05-20T05:15:05.044Z,99.57
2023-05-20T05:17:32.548Z,99.86
2023-05-20T05:20:00.252Z,100.00
2023-05-20T05:22:31.103Z,100.00
2023-05-20T05:24:59.060Z,100.00
2023-05-20T05:27:26.484Z,100.00
2023-05-20T05:29:53.900Z,100.00
2023-05-20T05:32:21.354Z,100.00
2023-05-20T05:34:48.905Z,100.00
2023-05-20T05:37:19.988Z,100.00
2023-05-20T05:39:47.808Z,100.00
2023-05-20T05:42:15.718Z,100.00
2023-05-20T05:44:44.441Z,100.00
2023-05-20T05:47:11.986Z,100.00
2023-05-20T05:49:39.481Z,100.00
2023-05-20T05:52:09.319Z,100.00
2023-05-20T05:54:36.840Z,100.00
2023-05-20T05:57:06.508Z,100.00
2023-05-20T05:59:35.451Z,100.00
2023-05-20T06:02:03.003Z,99.18
2023-05-20T06:04:30.886Z,97.33
2023-05-20T06:06:59.043Z,96.33
2023-05-20T06:09:26.489Z,97.26
2023-05-20T06:11:54.032Z,96.05
2023-05-20T06:14:21.747Z,96.96
2023-05-20T06:16:49.226Z,96.88
2023-05-20T06:19:18.514Z,98.26
2023-05-20T06:21:46.173Z,97.62
2023-05-20T06:24:16.189Z,95.80
2023-05-20T06:26:45.986Z,95.30
2023-05-20T06:29:13.492Z,97.51
2023-05-20T06:31:41.673Z,99.02
2023-05-20T06:34:09.109Z,99.88
2023-05-20T06:36:37.024Z,99.08
2023-05-20T06:39:06.432Z,97.60
2023-05-20T06:41:34.856Z,97.80
2023-05-20T06:44:09.031Z,99.81
2023-05-20T06:46:55.117Z,99.00
2023-05-20T06:49:24.078Z,100.00
2023-05-20T06:51:51.936Z,95.19
2023-05-20T06:54:19.665Z,96.91
2023-05-20T06:56:47.295Z,94.14
2023-05-20T06:59:15.828Z,95.08
2023-05-20T07:01:44.100Z,94.11
2023-05-20T07:04:12.628Z,93.02
2023-05-20T07:06:40.298Z,94.67
2023-05-20T07:09:07.884Z,92.96
2023-05-20T07:11:35.358Z,94.06
2023-05-20T07:14:02.810Z,93.82
2023-05-20T07:16:32.957Z,93.06
2023-05-20T07:19:01.087Z,93.06
2023-05-20T07:21:28.578Z,95.39
2023-05-20T07:24:03.317Z,96.15
2023-05-20T07:26:33.719Z,92.10
2023-05-20T07:29:02.021Z,95.10
2023-05-20T07:31:29.948Z,95.13
2023-05-20T07:33:57.873Z,95.74
2023-05-20T07:36:27.560Z,95.52
2023-05-20T07:39:03.289Z,96.46
2023-05-20T07:41:36.419Z,96.08
2023-05-20T07:44:05.764Z,100.00
2023-05-20T07:46:35.330Z,100.00
2023-05-20T07:49:05.101Z,100.00
2023-05-20T07:51:33.863Z,100.00
2023-05-20T07:54:01.758Z,100.00
2023-05-20T07:56:29.641Z,100.00
2023-05-20T07:58:59.322Z,97.10
2023-05-20T08:01:30.274Z,91.15
2023-05-20T08:03:57.863Z,89.14
2023-05-20T08:06:28.750Z,88.04
2023-05-20T08:08:57.657Z,84.56
2023-05-20T08:11:30.464Z,84.25
2023-05-20T08:13:58.273Z,84.15
2023-05-20T08:16:28.684Z,84.48
2023-05-20T08:18:56.162Z,83.83
2023-05-20T08:21:23.569Z,84.35
2023-05-20T08:23:51.467Z,84.91
2023-05-20T08:26:18.973Z,84.87
2023-05-20T08:28:46.798Z,85.60
2023-05-20T08:31:14.814Z,86.76
2023-05-20T08:33:42.312Z,87.40
2023-05-20T08:36:10.020Z,88.55
2023-05-20T08:38:37.477Z,91.46
2023-05-20T08:41:04.830Z,92.06
2023-05-20T08:43:33.444Z,91.57
2023-05-20T08:46:06.920Z,94.51
2023-05-20T08:48:37.073Z,94.04
2023-05-20T08:51:09.646Z,95.46
2023-05-20T08:53:37.408Z,95.79
2023-05-20T08:56:06.378Z,97.32
2023-05-20T08:58:33.927Z,97.88
2023-05-20T09:01:02.290Z,99.74
2023-05-20T09:03:30.642Z,99.61
2023-05-20T09:06:06.687Z,100.00
2023-05-20T09:08:34.538Z,99.17
2023-05-20T09:11:02.601Z,99.84
2023-05-20T09:13:32.753Z,97.88
2023-05-20T09:16:02.129Z,96.04
2023-05-20T09:18:30.266Z,95.85
2023-05-20T09:20:58.083Z,96.26
2023-05-20T09:23:26.038Z,96.01
2023-05-20T09:25:53.504Z,95.59
2023-05-20T09:28:26.725Z,96.49
2023-05-20T09:31:02.164Z,96.84
2023-05-20T09:33:32.132Z,97.23
2023-05-20T09:36:08.429Z,96.67
2023-05-20T09:38:40.269Z,96.77
2023-05-20T09:41:12.786Z,97.16
2023-05-20T09:43:41.993Z,94.08
2023-05-20T09:46:10.891Z,92.46
2023-05-20T09:48:39.891Z,93.09
2023-05-20T09:51:12.006Z,93.77
2023-05-20T09:53:39.346Z,94.20
2023-05-20T09:56:06.769Z,94.28
2023-05-20T09:58:36.096Z,94.62
2023-05-20T10:01:03.738Z,96.57
2023-05-20T10:03:33.568Z,95.50
2023-05-20T10:06:10.129Z,95.67
2023-05-20T10:09:07.456Z,93.61
2023-05-20T10:11:37.958Z,95.78
2023-05-20T10:14:20.841Z,96.21
2023-05-20T10:17:12.747Z,99.35
2023-05-20T10:19:40.248Z,98.00
2023-05-20T10:22:09.883Z,97.38
2023-05-20T10:24:41.127Z,94.24
2023-05-20T10:27:11.497Z,94.33
2023-05-20T10:32:49.693Z,92.34
2023-05-20T10:35:22.926Z,90.83
2023-05-20T10:37:50.429Z,89.19
2023-05-20T10:40:20.198Z,87.24
2023-05-20T10:42:48.234Z,86.93
2023-05-20T10:45:28.819Z,86.25
2023-05-20T10:48:00.236Z,88.72
2023-05-20T10:50:35.423Z,86.80
2023-05-20T10:53:13.345Z,85.53
2023-05-20T10:55:52.301Z,85.73
2023-05-20T10:58:19.907Z,84.66
2023-05-20T11:00:50.817Z,85.76
2023-05-20T11:03:18.760Z,85.77
2023-05-20T11:05:47.573Z,85.38
2023-05-20T11:08:27.685Z,83.98
2023-05-20T11:11:00.342Z,82.09
2023-05-20T11:13:27.901Z,84.18
2023-05-20T11:15:55.777Z,83.19
2023-05-20T11:18:23.196Z,84.22
2023-05-20T11:20:51.159Z,81.59
2023-05-20T11:23:19.258Z,82.06
2023-05-20T11:25:46.765Z,81.54
2023-05-20T11:28:14.580Z,82.35
2023-05-20T11:30:43.442Z,80.87
2023-05-20T11:33:15.905Z,80.94
2023-05-20T11:35:52.945Z,81.78
2023-05-20T11:38:21.799Z,81.47
2023-05-20T11:40:54.637Z,81.48
2023-05-20T11:43:23.950Z,80.02
2023-05-20T11:46:01.155Z,80.44
2023-05-20T11:48:28.824Z,81.50
2023-05-20T11:50:57.072Z,81.61
2023-05-20T11:53:24.872Z,81.41
2023-05-20T11:55:57.550Z,82.21
2023-05-20T11:58:29.826Z,82.50
2023-05-20T12:01:05.628Z,82.42
2023-05-20T12:03:41.481Z,82.95
2023-05-20T12:06:12.317Z,83.16
2023-05-20T12:08:39.683Z,82.55
2023-05-20T12:11:07.104Z,83.41
2023-05-20T12:13:35.453Z,83.17
2023-05-20T12:16:04.274Z,83.91
2023-05-20T12:18:32.851Z,82.52
2023-05-20T12:21:01.353Z,82.79
2023-05-20T12:23:30.823Z,82.79
2023-05-20T12:25:58.245Z,83.16
2023-05-20T12:28:25.696Z,82.98
2023-05-20T12:30:53.096Z,83.44
2023-05-20T12:33:20.909Z,83.73
2023-05-20T12:35:48.456Z,82.33
2023-05-20T12:38:15.940Z,81.90
2023-05-20T12:40:43.486Z,82.68
2023-05-20T12:43:10.947Z,82.54
2023-05-20T12:45:38.336Z,82.40
2023-05-20T12:48:07.866Z,82.16
2023-05-20T12:50:35.672Z,80.38
2023-05-20T12:53:03.291Z,80.47
2023-05-20T12:55:30.940Z,80.30
2023-05-20T12:57:58.342Z,80.59
2023-05-20T13:00:25.884Z,80.41
2023-05-20T13:02:53.416Z,81.26
2023-05-20T13:05:22.475Z,82.41
2023-05-20T13:07:49.859Z,82.43
2023-05-20T13:10:18.109Z,82.95
2023-05-20T13:12:46.391Z,82.88
2023-05-20T13:15:17.786Z,82.18
2023-05-20T13:17:48.278Z,83.10
2023-05-20T13:20:19.656Z,81.16
2023-05-20T13:22:47.501Z,82.71
2023-05-20T13:25:14.986Z,82.80
2023-05-20T13:27:42.747Z,81.96
2023-05-20T13:30:10.854Z,83.30
2023-05-20T13:32:38.392Z,82.15
2023-05-20T13:35:06.377Z,82.99
2023-05-20T13:37:33.718Z,85.02
2023-05-20T13:40:01.154Z,82.04
2023-05-20T13:42:28.671Z,83.75
2023-05-20T13:44:56.268Z,85.97
2023-05-20T13:47:23.739Z,85.23
2023-05-20T13:49:51.187Z,86.66
2023-05-20T13:52:18.576Z,87.20
2023-05-20T13:54:47.513Z,86.28
2023-05-20T13:57:18.069Z,86.88
2023-05-20T13:59:45.826Z,87.51
2023-05-20T14:02:13.356Z,87.53
2023-05-20T14:04:44.737Z,87.37
2023-05-20T14:07:12.388Z,88.15
2023-05-20T14:09:39.820Z,87.83
2023-05-20T14:12:07.574Z,86.19
2023-05-20T14:14:35.004Z,85.85
2023-05-20T14:17:02.416Z,86.12
2023-05-20T14:19:30.240Z,87.33
2023-05-20T14:22:01.379Z,86.21
2023-05-20T14:24:29.239Z,85.52
2023-05-20T14:26:56.639Z,85.25
2023-05-20T14:29:24.174Z,86.19
2023-05-20T14:31:51.665Z,84.31
2023-05-20T14:34:21.741Z,85.38
2023-05-20T14:36:49.190Z,85.61
2023-05-20T14:39:17.148Z,84.81
2023-05-20T14:41:44.559Z,86.17
2023-05-20T14:44:11.962Z,87.22
2023-05-20T14:46:39.555Z,88.01
2023-05-20T14:49:10.106Z,88.64
2023-05-20T14:51:37.518Z,89.01
2023-05-20T14:54:06.017Z,89.17
2023-05-20T14:56:33.375Z,88.33
2023-05-20T14:59:00.799Z,89.24
2023-05-20T15:01:28.730Z,90.42
2023-05-20T15:03:56.214Z,89.96
2023-05-20T15:06:23.655Z,89.18
2023-05-20T15:08:51.118Z,89.14
2023-05-20T15:11:18.580Z,89.57
2023-05-20T15:13:46.601Z,89.60
2023-05-20T15:16:14.169Z,90.08
2023-05-20T15:18:41.681Z,91.69
2023-05-20T15:21:09.133Z,90.02
2023-05-20T15:23:36.522Z,90.81
2023-05-20T15:26:04.585Z,90.11
2023-05-20T15:28:32.019Z,90.92
2023-05-20T15:31:02.194Z,89.60
2023-05-20T15:33:29.729Z,91.24
2023-05-20T15:35:57.238Z,90.89
2023-05-20T15:38:24.693Z,88.88
2023-05-20T15:40:52.152Z,89.68
2023-05-20T15:43:19.982Z,89.14
2023-05-20T15:45:48.363Z,89.95
2023-05-20T15:48:15.996Z,90.32
2023-05-20T15:50:43.511Z,87.84
2023-05-20T15:53:11.085Z,89.39
2023-05-20T15:55:38.590Z,87.16
2023-05-20T15:58:06.131Z,86.94
2023-05-20T16:00:33.991Z,87.78
2023-05-20T16:03:01.791Z,89.38
2023-05-20T16:05:29.424Z,89.74
2023-05-20T16:07:57.130Z,90.65
2023-05-20T16:10:26.186Z,89.82
2023-05-20T16:12:53.653Z,90.60
2023-05-20T16:15:21.109Z,89.91
2023-05-20T16:17:48.504Z,90.87
2023-05-20T16:20:15.959Z,91.86
2023-05-20T16:22:43.384Z,90.52
2023-05-20T16:25:14.309Z,90.47
2023-05-20T16:27:41.713Z,91.36
2023-05-20T16:30:10.131Z,91.36
2023-05-20T16:32:37.533Z,91.78
2023-05-20T16:35:06.064Z,90.14
2023-05-20T16:37:34.282Z,90.69
2023-05-20T16:40:01.795Z,90.82
2023-05-20T16:42:29.681Z,89.84
2023-05-20T16:44:57.068Z,90.58
2023-05-20T16:47:24.434Z,90.53
2023-05-20T16:49:52.234Z,89.74
2023-05-20T16:52:19.623Z,90.54
2023-05-20T16:54:47.078Z,94.58
2023-05-20T16:57:16.037Z,97.02
2023-05-20T16:59:43.455Z,100.00
2023-05-20T17:02:10.882Z,98.24
2023-05-20T17:04:38.585Z,100.00
2023-05-20T17:07:09.742Z,100.00
2023-05-20T17:09:37.483Z,100.00
2023-05-20T17:12:07.970Z,100.00
2023-05-20T17:14:35.426Z,100.00
2023-05-20T17:17:02.860Z,100.00
2023-05-20T17:19:30.673Z,100.00
2023-05-20T17:22:01.220Z,100.00
2023-05-20T17:24:28.660Z,100.00
2023-05-20T17:26:56.248Z,100.00
2023-05-20T17:29:23.622Z,100.00
2023-05-20T17:31:51.238Z,100.00
2023-05-20T17:34:18.778Z,100.00
2023-05-20T17:36:46.494Z,100.00
2023-05-20T17:39:13.971Z,100.00
2023-05-20T17:41:42.992Z,100.00
2023-05-20T17:44:11.312Z,100.00
2023-05-20T17:46:38.877Z,100.00
2023-05-20T17:49:06.453Z,100.00
2023-05-20T17:51:34.361Z,100.00
2023-05-20T17:54:04.609Z,100.00
2023-05-20T17:56:32.199Z,100.00
2023-05-20T17:58:59.724Z,100.00
2023-05-20T18:01:27.263Z,100.00
2023-05-20T18:03:54.847Z,100.00
2023-05-20T18:06:23.159Z,100.00
2023-05-20T18:08:50.783Z,100.00
2023-05-20T18:11:18.272Z,100.00
2023-05-20T18:13:46.276Z,100.00
2023-05-20T18:16:14.604Z,100.00
2023-05-20T18:18:42.532Z,100.00
2023-05-20T18:21:10.145Z,100.00
2023-05-20T18:23:37.542Z,100.00
2023-05-20T18:26:07.010Z,100.00
2023-05-20T18:28:34.888Z,100.00
2023-05-20T18:31:04.623Z,100.00
2023-05-20T18:33:32.516Z,100.00
2023-05-20T18:36:00.169Z,100.00
2023-05-20T18:38:27.680Z,100.00
2023-05-20T18:40:55.205Z,100.00
2023-05-20T18:43:22.543Z,100.00
2023-05-20T18:45:50.225Z,100.00
2023-05-20T18:48:26.092Z,100.00
2023-05-20T18:50:58.563Z,100.00
2023-05-20T18:53:26.086Z,100.00
2023-05-20T18:55:53.669Z,100.00
2023-05-20T18:58:21.417Z,100.00
2023-05-20T19:00:48.996Z,100.00
2023-05-20T19:03:17.113Z,100.00
2023-05-20T19:08:11.902Z,100.00
2023-05-20T19:10:41.639Z,100.00
2023-05-20T19:13:09.302Z,100.00
2023-05-20T19:15:37.045Z,100.00
2023-05-20T19:18:04.719Z,100.00
2023-05-20T19:20:34.092Z,100.00
2023-05-20T19:23:01.481Z,100.00
2023-05-20T19:25:28.962Z,100.00
2023-05-20T19:27:56.343Z,100.00
2023-05-20T19:30:23.708Z,100.00
2023-05-20T19:32:51.136Z,100.00
2023-05-20T19:35:18.610Z,100.00
2023-05-20T19:37:46.010Z,100.00
2023-05-20T19:40:13.873Z,100.00
2023-05-20T19:42:41.220Z,100.00
2023-05-20T19:45:09.270Z,100.00
2023-05-20T19:47:37.495Z,100.00
2023-05-20T19:50:05.585Z,100.00
2023-05-20T19:52:32.961Z,100.00
2023-05-20T19:55:00.496Z,100.00
2023-05-20T19:57:27.966Z,100.00
2023-05-20T19:59:55.374Z,100.00
2023-05-20T20:02:22.836Z,100.00
2023-05-20T20:04:53.750Z,100.00
2023-05-20T20:07:21.675Z,100.00
2023-05-20T20:09:51.662Z,100.00
2023-05-20T20:12:19.147Z,100.00
2023-05-20T20:14:46.686Z,100.00
2023-05-20T20:17:17.388Z,100.00
2023-05-20T20:19:48.104Z,100.00
2023-05-20T20:22:16.617Z,100.00
2023-05-20T20:24:44.013Z,100.00
2023-05-20T20:27:13.238Z,100.00
2023-05-20T20:29:43.556Z,100.00
2023-05-20T20:32:11.794Z,100.00
2023-05-20T20:34:39.223Z,100.00
2023-05-20T20:37:06.874Z,100.00
2023-05-20T20:39:34.750Z,100.00
2023-05-20T20:42:02.959Z,100.00
2023-05-20T20:44:30.751Z,100.00
2023-05-20T20:46:58.803Z,100.00
2023-05-20T20:49:28.430Z,100.00
2023-05-20T20:51:56.070Z,100.00
2023-05-20T20:54:23.619Z,100.00
2023-05-20T20:56:56.649Z,100.00
2023-05-20T20:59:26.684Z,100.00
2023-05-20T21:01:55.306Z,100.00
2023-05-20T21:04:22.747Z,100.00
2023-05-20T21:06:50.292Z,100.00
2023-05-20T21:09:17.823Z,100.00
2023-05-20T21:11:51.645Z,100.00
2023-05-20T21:14:19.056Z,100.00
2023-05-20T21:16:46.546Z,100.00
2023-05-20T21:19:14.101Z,100.00
2023-05-20T21:21:41.557Z,100.00
2023-05-20T21:24:08.922Z,100.00
2023-05-20T21:26:36.295Z,100.00
2023-05-20T21:29:04.765Z,100.00
2023-05-20T21:31:32.216Z,100.00
2023-05-20T21:33:59.556Z,100.00
2023-05-20T21:36:27.004Z,100.00
2023-05-20T21:38:54.447Z,100.00
2023-05-20T21:41:21.875Z,100.00
2023-05-20T21:43:49.279Z,100.00
2023-05-20T21:46:16.727Z,100.00
2023-05-20T21:48:44.282Z,100.00
2023-05-20T21:51:11.715Z,100.00
2023-05-20T21:53:39.040Z,100.00
2023-05-20T21:56:06.701Z,100.00
2023-05-20T21:58:36.674Z,100.00
2023-05-20T22:01:04.142Z,100.00
2023-05-20T22:03:33.014Z,100.00
2023-05-20T22:06:00.895Z,100.00
2023-05-20T22:08:33.136Z,100.00
2023-05-20T22:11:05.326Z,100.00
2023-05-20T22:13:34.870Z,100.00
2023-05-20T22:16:04.920Z,100.00
2023-05-20T22:18:32.749Z,100.00
2023-05-20T22:21:01.161Z,100.00
2023-05-20T22:23:28.955Z,100.00
2023-05-20T22:25:56.915Z,100.00
2023-05-20T22:28:26.227Z,100.00
2023-05-20T22:30:53.679Z,100.00
2023-05-20T22:33:22.824Z,100.00
2023-05-20T22:35:51.361Z,100.00
2023-05-20T22:38:22.003Z,100.00
2023-05-20T22:40:49.421Z,100.00
2023-05-20T22:43:16.930Z,100.00
2023-05-20T22:45:44.403Z,100.00
2023-05-20T22:48:12.408Z,100.00
2023-05-20T22:50:40.302Z,100.00
2023-05-20T22:53:07.809Z,100.00
2023-05-20T22:55:35.425Z,100.00
2023-05-20T22:58:02.913Z,100.00
2023-05-20T23:00:30.336Z,100.00
2023-05-20T23:02:58.641Z,100.00
2023-05-20T23:05:26.480Z,100.00
2023-05-20T23:07:54.900Z,100.00
2023-05-20T23:10:24.294Z,100.00
2023-05-20T23:12:52.243Z,100.00
2023-05-20T23:15:19.826Z,100.00
2023-05-20T23:17:47.804Z,100.00
2023-05-20T23:20:19.016Z,100.00
2023-05-20T23:22:46.526Z,100.00
2023-05-20T23:25:13.895Z,100.00
2023-05-20T23:27:41.326Z,100.00
2023-05-20T23:30:09.400Z,100.00
2023-05-20T23:32:36.875Z,100.00
2023-05-20T23:35:04.892Z,100.00
2023-05-20T23:37:34.444Z,100.00
2023-05-20T23:40:01.885Z,100.00
2023-05-20T23:42:29.297Z,100.00
2023-05-20T23:44:56.673Z,100.00
2023-05-20T23:47:29.929Z,100.00
2023-05-20T23:49:58.467Z,100.00
2023-05-20T23:52:26.567Z,100.00
2023-05-20T23:54:54.069Z,100.00
2023-05-20T23:57:21.480Z,100.00
2023-05-20T23:59:49.111Z,100.00
